createdAt,value
2023-03-25T00:00:57.757Z,99350.88
2023-03-25T00:03:26.345Z,99353.13
2023-03-25T00:05:54.121Z,99360.66
2023-03-25T00:08:21.972Z,99354.91
2023-03-25T00:10:54.034Z,99345.78
2023-03-25T00:13:22.099Z,99346.06
2023-03-25T00:15:50.112Z,99350.84
2023-03-25T00:18:19.368Z,99342.56
2023-03-25T00:20:49.539Z,99338.63
2023-03-25T00:23:17.517Z,99346.19
2023-03-25T00:25:45.277Z,99352.28
2023-03-25T00:28:13.767Z,99338.84
2023-03-25T00:30:41.866Z,99337.44
2023-03-25T00:33:10.863Z,99331.56
2023-03-25T00:35:44.928Z,99351.09
2023-03-25T00:38:12.800Z,99338.56
2023-03-25T00:40:41.163Z,99337.81
2023-03-25T00:43:08.861Z,99350.25
2023-03-25T00:45:36.583Z,99340.25
2023-03-25T00:48:06.801Z,99327.13
2023-03-25T00:50:34.738Z,99328.06
2023-03-25T00:53:04.028Z,99336.31
2023-03-25T00:55:31.821Z,99335.47
2023-03-25T00:57:59.478Z,99329.59
2023-03-25T01:00:27.196Z,99332.22
2023-03-25T01:02:55.044Z,99330.19
2023-03-25T01:05:22.736Z,99321.72
2023-03-25T01:07:51.779Z,99329.84
2023-03-25T01:10:21.313Z,99340.75
2023-03-25T01:12:49.080Z,99324.31
2023-03-25T01:15:16.958Z,99341.44
2023-03-25T01:17:44.651Z,99319.94
2023-03-25T01:20:13.018Z,99330.19
2023-03-25T01:22:40.735Z,99316.53
2023-03-25T01:25:09.220Z,99328.41
2023-03-25T01:27:38.271Z,99327.56
2023-03-25T01:30:07.173Z,99321.13
2023-03-25T01:32:34.890Z,99318.91
2023-03-25T01:35:04.508Z,99325.34
2023-03-25T01:37:34.087Z,99313.44
2023-03-25T01:40:01.814Z,99313.78
2023-03-25T01:42:29.484Z,99327.59
2023-03-25T01:45:21.037Z,99309.38
2023-03-25T01:47:50.182Z,99309.13
2023-03-25T01:50:18.247Z,99297.34
2023-03-25T01:52:49.224Z,99295.50
2023-03-25T01:55:20.307Z,99288.25
2023-03-25T01:57:48.898Z,99302.44
2023-03-25T02:00:19.239Z,99294.47
2023-03-25T02:02:47.674Z,99295.50
2023-03-25T02:05:20.090Z,99307.03
2023-03-25T02:07:50.317Z,99302.97
2023-03-25T02:10:18.919Z,99299.06
2023-03-25T02:12:47.197Z,99298.59
2023-03-25T02:15:16.488Z,99298.22
2023-03-25T02:17:55.095Z,99302.78
2023-03-25T02:21:02.910Z,99308.66
2023-03-25T02:23:58.313Z,99288.88
2023-03-25T02:26:56.278Z,99299.19
2023-03-25T02:29:33.979Z,99307.72
2023-03-25T02:32:12.769Z,99305.41
2023-03-25T02:35:14.904Z,99313.81
2023-03-25T02:38:21.818Z,99314.41
2023-03-25T02:40:55.654Z,99301.22
2023-03-25T02:43:27.385Z,99311.50
2023-03-25T02:45:57.423Z,99304.81
2023-03-25T02:48:31.490Z,99296.66
2023-03-25T02:50:59.694Z,99302.31
2023-03-25T02:53:33.398Z,99306.72
2023-03-25T02:56:03.604Z,99283.22
2023-03-25T02:58:32.031Z,99280.34
2023-03-25T03:00:59.873Z,99292.81
2023-03-25T03:03:28.454Z,99288.75
2023-03-25T03:05:58.968Z,99295.47
2023-03-25T03:08:41.640Z,99285.16
2023-03-25T03:11:14.236Z,99288.22
2023-03-25T03:13:53.904Z,99287.25
2023-03-25T03:16:25.715Z,99290.09
2023-03-25T03:19:02.268Z,99293.50
2023-03-25T03:21:38.225Z,99288.63
2023-03-25T03:24:12.676Z,99291.75
2023-03-25T03:26:44.038Z,99296.34
2023-03-25T03:29:14.606Z,99274.38
2023-03-25T03:31:48.362Z,99294.88
2023-03-25T03:34:36.472Z,99291.88
2023-03-25T03:37:05.859Z,99300.72
2023-03-25T03:39:36.631Z,99296.41
2023-03-25T03:42:07.842Z,99299.31
2023-03-25T03:44:37.755Z,99289.69
2023-03-25T03:47:07.552Z,99285.06
2023-03-25T03:49:39.349Z,99289.50
2023-03-25T03:52:09.868Z,99293.31
2023-03-25T03:54:43.315Z,99302.91
2023-03-25T03:57:14.391Z,99294.03
2023-03-25T03:59:46.298Z,99301.47
2023-03-25T04:02:18.737Z,99309.00
2023-03-25T04:04:46.524Z,99307.56
2023-03-25T04:07:17.014Z,99304.09
2023-03-25T04:09:55.869Z,99304.34
2023-03-25T04:12:26.867Z,99297.28
2023-03-25T04:14:55.824Z,99295.22
2023-03-25T04:17:24.157Z,99301.09
2023-03-25T04:19:53.710Z,99310.09
2023-03-25T04:22:22.770Z,99308.19
2023-03-25T04:24:51.954Z,99299.91
2023-03-25T04:27:23.021Z,99299.78
2023-03-25T04:29:51.805Z,99298.44
2023-03-25T04:32:20.072Z,99297.16
2023-03-25T04:34:48.018Z,99289.97
2023-03-25T04:37:15.920Z,99285.19
2023-03-25T04:39:43.586Z,99285.88
2023-03-25T04:42:13.892Z,99278.91
2023-03-25T04:44:41.590Z,99282.66
2023-03-25T04:47:11.969Z,99277.72
2023-03-25T04:49:39.627Z,99278.09
2023-03-25T04:52:09.341Z,99285.63
2023-03-25T04:54:38.440Z,99286.31
2023-03-25T04:57:08.673Z,99290.78
2023-03-25T04:59:38.238Z,99281.00
2023-03-25T05:02:06.827Z,99274.59
2023-03-25T05:04:34.802Z,99270.66
2023-03-25T05:07:02.591Z,99273.16
2023-03-25T05:09:30.251Z,99272.81
2023-03-25T05:11:57.944Z,99265.91
2023-03-25T05:14:25.680Z,99269.31
2023-03-25T05:16:57.379Z,99270.00
2023-03-25T05:19:25.581Z,99281.38
2023-03-25T05:21:53.283Z,99267.34
2023-03-25T05:24:21.003Z,99275.84
2023-03-25T05:26:48.692Z,99274.31
2023-03-25T05:29:16.527Z,99285.56
2023-03-25T05:31:46.457Z,99281.78
2023-03-25T05:34:17.132Z,99280.72
2023-03-25T05:36:45.189Z,99292.38
2023-03-25T05:39:13.774Z,99296.81
2023-03-25T05:41:41.693Z,99296.53
2023-03-25T05:44:15.500Z,99286.94
2023-03-25T05:46:43.395Z,99282.50
2023-03-25T05:49:11.055Z,99284.78
2023-03-25T05:51:40.123Z,99279.06
2023-03-25T05:54:11.699Z,99287.28
2023-03-25T05:56:40.290Z,99276.97
2023-03-25T05:59:10.333Z,99283.44
2023-03-25T06:01:38.548Z,99282.97
2023-03-25T06:04:09.804Z,99268.16
2023-03-25T06:06:37.629Z,99292.06
2023-03-25T06:09:07.358Z,99315.81
2023-03-25T06:11:38.538Z,99336.59
2023-03-25T06:14:07.514Z,99319.16
2023-03-25T06:16:35.604Z,99320.38
2023-03-25T06:19:03.593Z,99310.84
2023-03-25T06:21:33.797Z,99298.47
2023-03-25T06:24:02.285Z,99302.22
2023-03-25T06:26:32.577Z,99310.63
2023-03-25T06:29:01.100Z,99321.97
2023-03-25T06:31:28.806Z,99311.97
2023-03-25T06:33:57.058Z,99315.38
2023-03-25T06:36:25.838Z,99317.75
2023-03-25T06:38:54.708Z,99323.47
2023-03-25T06:41:25.831Z,99318.16
2023-03-25T06:43:55.096Z,99328.97
2023-03-25T06:46:22.915Z,99314.91
2023-03-25T06:48:50.661Z,99310.06
2023-03-25T06:51:18.349Z,99325.28
2023-03-25T06:53:46.074Z,99323.56
2023-03-25T06:56:13.833Z,99330.28
2023-03-25T06:58:41.962Z,99323.34
2023-03-25T07:01:11.027Z,99322.28
2023-03-25T07:03:39.087Z,99322.84
2023-03-25T07:06:07.696Z,99319.88
2023-03-25T07:08:35.496Z,99334.50
2023-03-25T07:11:03.865Z,99324.66
2023-03-25T07:13:32.178Z,99344.69
2023-03-25T07:16:00.427Z,99328.16
2023-03-25T07:18:29.571Z,99326.69
2023-03-25T07:20:57.308Z,99326.34
2023-03-25T07:23:25.114Z,99315.91
2023-03-25T07:25:53.015Z,99334.63
2023-03-25T07:28:21.408Z,99331.34
2023-03-25T07:30:49.076Z,99339.25
2023-03-25T07:33:16.775Z,99340.16
2023-03-25T07:35:46.033Z,99344.97
2023-03-25T07:38:13.777Z,99344.00
2023-03-25T07:40:41.525Z,99356.34
2023-03-25T07:43:09.301Z,99344.28
2023-03-25T07:45:44.035Z,99355.19
2023-03-25T07:48:14.826Z,99350.00
2023-03-25T07:50:43.387Z,99321.09
2023-03-25T07:53:12.723Z,99335.97
2023-03-25T07:55:40.481Z,99336.34
2023-03-25T07:58:08.249Z,99333.34
2023-03-25T08:00:35.947Z,99336.41
2023-03-25T08:03:03.785Z,99341.59
2023-03-25T08:05:31.909Z,99321.09
2023-03-25T08:08:00.972Z,99333.09
2023-03-25T08:10:30.102Z,99335.84
2023-03-25T08:12:57.892Z,99332.78
2023-03-25T08:15:25.709Z,99351.00
2023-03-25T08:17:53.601Z,99355.38
2023-03-25T08:20:21.488Z,99350.53
2023-03-25T08:22:49.266Z,99359.94
2023-03-25T08:25:17.059Z,99361.78
2023-03-25T08:27:46.369Z,99345.44
2023-03-25T08:30:15.762Z,99360.63
2023-03-25T08:32:46.379Z,99366.28
2023-03-25T08:35:14.475Z,99349.63
2023-03-25T08:37:42.157Z,99361.38
2023-03-25T08:40:10.234Z,99361.16
2023-03-25T08:42:38.499Z,99366.72
2023-03-25T08:45:08.997Z,99365.50
2023-03-25T08:47:36.722Z,99356.97
2023-03-25T08:50:05.388Z,99365.38
2023-03-25T08:52:33.094Z,99358.03
2023-03-25T08:55:00.914Z,99362.91
2023-03-25T08:57:28.696Z,99366.00
2023-03-25T08:59:56.335Z,99386.13
2023-03-25T09:02:25.515Z,99380.41
2023-03-25T09:04:53.261Z,99362.50
2023-03-25T09:07:23.253Z,99350.66
2023-03-25T09:09:50.989Z,99367.03
2023-03-25T09:12:18.643Z,99382.13
2023-03-25T09:14:46.612Z,99382.22
2023-03-25T09:17:14.388Z,99384.84
2023-03-25T09:19:43.490Z,99374.59
2023-03-25T09:22:11.126Z,99364.47
2023-03-25T09:24:38.822Z,99366.44
2023-03-25T09:27:06.486Z,99382.19
2023-03-25T09:29:34.346Z,99368.03
2023-03-25T09:32:02.717Z,99362.34
2023-03-25T09:34:31.019Z,99368.81
2023-03-25T09:37:00.151Z,99369.22
2023-03-25T09:39:27.837Z,99372.44
2023-03-25T09:42:04.917Z,99374.84
2023-03-25T09:44:35.403Z,99371.94
2023-03-25T09:47:04.488Z,99360.06
2023-03-25T09:49:38.508Z,99377.59
2023-03-25T09:52:13.397Z,99361.81
2023-03-25T09:54:42.182Z,99366.66
2023-03-25T09:57:15.656Z,99389.63
2023-03-25T09:59:47.344Z,99377.59
2023-03-25T10:02:26.681Z,99373.00
2023-03-25T10:05:18.526Z,99360.22
2023-03-25T10:07:58.464Z,99383.19
2023-03-25T10:10:29.680Z,99391.81
2023-03-25T10:13:05.253Z,99390.50
2023-03-25T10:15:38.363Z,99389.44
2023-03-25T10:18:27.824Z,99377.72
2023-03-25T10:21:02.441Z,99401.94
2023-03-25T10:23:37.718Z,99404.84
2023-03-25T10:26:09.297Z,99387.38
2023-03-25T10:28:43.480Z,99388.94
2023-03-25T10:31:14.902Z,99380.06
2023-03-25T10:33:45.660Z,99388.47
2023-03-25T10:36:18.053Z,99404.28
2023-03-25T10:38:48.472Z,99400.28
2023-03-25T10:41:25.340Z,99404.50
2023-03-25T10:43:53.319Z,99401.16
2023-03-25T10:46:27.533Z,99396.75
2023-03-25T10:48:55.234Z,99393.03
2023-03-25T10:51:25.610Z,99399.28
2023-03-25T10:53:54.732Z,99394.47
2023-03-25T10:56:25.758Z,99372.41
2023-03-25T10:58:55.746Z,99373.09
2023-03-25T11:01:37.135Z,99374.81
2023-03-25T11:04:06.460Z,99388.97
2023-03-25T11:06:36.026Z,99392.78
2023-03-25T11:09:18.204Z,99397.56
2023-03-25T11:11:46.974Z,99415.78
2023-03-25T11:14:14.909Z,99418.25
2023-03-25T11:16:44.829Z,99379.28
2023-03-25T11:19:19.611Z,99397.31
2023-03-25T11:21:49.063Z,99398.81
2023-03-25T11:24:20.406Z,99394.00
2023-03-25T11:26:51.789Z,99415.91
2023-03-25T11:29:22.170Z,99403.16
2023-03-25T11:31:58.404Z,99411.03
2023-03-25T11:34:26.370Z,99416.59
2023-03-25T11:36:56.039Z,99422.69
2023-03-25T11:39:31.416Z,99398.03
2023-03-25T11:41:59.709Z,99408.22
2023-03-25T11:44:29.516Z,99402.66
2023-03-25T11:46:59.146Z,99411.81
2023-03-25T11:49:27.482Z,99394.44
2023-03-25T11:51:59.292Z,99389.88
2023-03-25T11:54:29.097Z,99403.53
2023-03-25T11:56:57.509Z,99407.97
2023-03-25T11:59:27.307Z,99397.47
2023-03-25T12:02:03.099Z,99401.91
2023-03-25T12:04:31.242Z,99401.44
2023-03-25T12:07:01.598Z,99416.03
2023-03-25T12:09:32.885Z,99406.22
2023-03-25T12:12:23.096Z,99414.53
2023-03-25T12:15:00.360Z,99402.94
2023-03-25T12:17:34.798Z,99389.09
2023-03-25T12:20:10.040Z,99390.88
2023-03-25T12:22:49.354Z,99385.59
2023-03-25T12:25:27.364Z,99379.75
2023-03-25T12:28:04.173Z,99392.50
2023-03-25T12:30:49.029Z,99385.09
2023-03-25T12:33:30.363Z,99401.56
2023-03-25T12:36:14.532Z,99399.72
2023-03-25T12:38:50.192Z,99392.44
2023-03-25T12:41:23.131Z,99391.53
2023-03-25T12:43:59.787Z,99395.91
2023-03-25T12:46:54.954Z,99390.28
2023-03-25T12:49:35.263Z,99402.53
2023-03-25T12:52:07.362Z,99386.91
2023-03-25T12:54:52.178Z,99387.50
2023-03-25T12:57:33.089Z,99386.53
2023-03-25T13:00:26.414Z,99375.22
2023-03-25T13:03:08.251Z,99363.34
2023-03-25T13:05:40.267Z,99384.88
2023-03-25T13:08:11.567Z,99388.78
2023-03-25T13:10:40.747Z,99391.53
2023-03-25T13:13:14.487Z,99386.56
2023-03-25T13:15:44.385Z,99378.97
2023-03-25T13:18:15.133Z,99378.22
2023-03-25T13:20:46.646Z,99371.38
2023-03-25T13:23:21.486Z,99367.25
2023-03-25T13:25:53.153Z,99371.44
2023-03-25T13:28:25.610Z,99359.50
2023-03-25T13:30:54.718Z,99331.19
2023-03-25T13:33:26.139Z,99353.84
2023-03-25T13:35:56.096Z,99363.63
2023-03-25T13:38:28.495Z,99367.75
2023-03-25T13:41:06.324Z,99331.19
2023-03-25T13:43:38.751Z,99364.72
2023-03-25T13:46:09.382Z,99358.00
2023-03-25T13:48:41.876Z,99345.50
2023-03-25T13:51:10.403Z,99356.34
2023-03-25T13:53:41.413Z,99335.00
2023-03-25T13:56:38.080Z,99301.13
2023-03-25T13:59:24.162Z,99358.81
2023-03-25T14:02:05.804Z,99348.97
2023-03-25T14:05:01.941Z,99351.50
2023-03-25T14:07:45.329Z,99360.00
2023-03-25T14:10:27.580Z,99372.47
2023-03-25T14:12:58.192Z,99365.75
2023-03-25T14:15:30.409Z,99373.25
2023-03-25T14:17:58.508Z,99365.16
2023-03-25T14:20:28.663Z,99369.91
2023-03-25T14:22:57.686Z,99366.53
2023-03-25T14:25:30.923Z,99368.78
2023-03-25T14:27:58.592Z,99357.34
2023-03-25T14:30:29.370Z,99357.25
2023-03-25T14:32:57.771Z,99364.75
2023-03-25T14:35:49.460Z,99355.81
2023-03-25T14:38:49.800Z,99357.63
2023-03-25T14:41:17.552Z,99367.66
2023-03-25T14:43:47.235Z,99365.72
2023-03-25T14:46:19.413Z,99360.38
2023-03-25T14:48:51.645Z,99360.09
2023-03-25T14:51:44.957Z,99319.38
2023-03-25T14:54:21.956Z,99334.09
2023-03-25T14:56:57.787Z,99362.16
2023-03-25T14:59:31.000Z,99345.63
2023-03-25T15:02:06.069Z,99361.66
2023-03-25T15:04:36.084Z,99384.53
2023-03-25T15:07:04.837Z,99383.28
2023-03-25T15:09:32.787Z,99363.19
2023-03-25T15:12:02.667Z,99381.09
2023-03-25T15:14:32.808Z,99387.28
2023-03-25T15:17:05.472Z,99391.28
2023-03-25T15:20:08.836Z,99353.25
2023-03-25T15:22:36.829Z,99384.63
2023-03-25T15:25:07.035Z,99402.50
2023-03-25T15:27:48.123Z,99405.44
2023-03-25T15:30:31.814Z,99399.47
2023-03-25T15:33:13.605Z,99408.41
2023-03-25T15:35:55.548Z,99430.44
2023-03-25T15:38:58.680Z,99437.09
2023-03-25T15:42:00.532Z,99446.91
2023-03-25T15:45:08.713Z,99463.56
2023-03-25T15:47:49.759Z,99444.53
2023-03-25T15:50:32.677Z,99463.03
2023-03-25T15:53:35.836Z,99448.19
2023-03-25T15:56:12.162Z,99449.66
2023-03-25T15:58:42.692Z,99462.34
2023-03-25T16:01:17.845Z,99459.00
2023-03-25T16:03:46.585Z,99462.38
2023-03-25T16:06:17.241Z,99471.31
2023-03-25T16:08:47.781Z,99476.91
2023-03-25T16:11:17.660Z,99473.72
2023-03-25T16:13:45.373Z,99470.25
2023-03-25T16:16:14.659Z,99471.47
2023-03-25T16:18:43.491Z,99487.72
2023-03-25T16:21:11.485Z,99498.03
2023-03-25T16:23:40.571Z,99494.13
2023-03-25T16:26:08.397Z,99490.13
2023-03-25T16:28:40.887Z,99502.34
2023-03-25T16:31:28.136Z,99508.41
2023-03-25T16:34:00.439Z,99517.53
2023-03-25T16:36:28.415Z,99511.72
2023-03-25T16:38:58.666Z,99523.69
2023-03-25T16:41:27.166Z,99508.91
2023-03-25T16:43:54.952Z,99514.50
2023-03-25T16:46:23.598Z,99512.19
2023-03-25T16:48:53.556Z,99521.06
2023-03-25T16:51:23.792Z,99522.00
2023-03-25T16:53:55.763Z,99521.91
2023-03-25T16:56:29.218Z,99528.47
2023-03-25T16:59:00.224Z,99535.81
2023-03-25T17:01:29.248Z,99546.66
2023-03-25T17:04:09.435Z,99527.19
2023-03-25T17:06:39.875Z,99540.44
2023-03-25T17:09:10.374Z,99555.34
2023-03-25T17:11:39.496Z,99545.28
2023-03-25T17:14:08.806Z,99560.66
2023-03-25T17:16:37.978Z,99538.25
2023-03-25T17:19:05.887Z,99564.44
2023-03-25T17:21:35.204Z,99569.28
2023-03-25T17:24:05.619Z,99575.59
2023-03-25T17:26:35.264Z,99570.13
2023-03-25T17:29:07.835Z,99586.00
2023-03-25T17:31:37.882Z,99591.00
2023-03-25T17:34:07.454Z,99587.59
2023-03-25T17:36:36.593Z,99599.38
2023-03-25T17:39:06.794Z,99602.75
2023-03-25T17:41:37.740Z,99592.84
2023-03-25T17:44:08.064Z,99613.16
2023-03-25T17:46:36.139Z,99599.91
2023-03-25T17:49:13.016Z,99614.75
2023-03-25T17:51:42.125Z,99616.44
2023-03-25T17:54:09.815Z,99628.09
2023-03-25T17:56:39.550Z,99626.53
2023-03-25T17:59:14.804Z,99639.72
2023-03-25T18:01:42.581Z,99634.34
2023-03-25T18:04:12.913Z,99636.94
2023-03-25T18:06:42.904Z,99641.94
2023-03-25T18:09:15.987Z,99639.78
2023-03-25T18:11:44.731Z,99645.56
2023-03-25T18:14:13.922Z,99639.47
2023-03-25T18:16:41.678Z,99655.13
2023-03-25T18:19:12.174Z,99661.66
2023-03-25T18:21:40.017Z,99664.31
2023-03-25T18:24:08.063Z,99663.63
2023-03-25T18:26:36.140Z,99664.19
2023-03-25T18:29:05.269Z,99671.97
2023-03-25T18:31:34.320Z,99661.41
2023-03-25T18:34:02.040Z,99668.38
2023-03-25T18:36:29.777Z,99677.66
2023-03-25T18:38:57.815Z,99682.31
2023-03-25T18:41:25.477Z,99672.31
2023-03-25T18:43:53.229Z,99695.88
2023-03-25T18:46:21.513Z,99698.31
2023-03-25T18:48:50.736Z,99702.72
2023-03-25T18:51:18.435Z,99702.13
2023-03-25T18:53:47.285Z,99695.47
2023-03-25T18:56:15.026Z,99689.31
2023-03-25T18:58:42.673Z,99701.44
2023-03-25T19:01:15.633Z,99703.75
2023-03-25T19:03:43.428Z,99717.25
2023-03-25T19:06:14.097Z,99704.38
2023-03-25T19:08:43.396Z,99708.06
2023-03-25T19:11:20.958Z,99716.16
2023-03-25T19:13:50.322Z,99721.31
2023-03-25T19:16:18.345Z,99723.31
2023-03-25T19:18:47.445Z,99724.31
2023-03-25T19:21:18.029Z,99727.28
2023-03-25T19:23:45.902Z,99724.66
2023-03-25T19:26:13.917Z,99719.50
2023-03-25T19:28:41.767Z,99731.59
2023-03-25T19:31:09.703Z,99726.00
2023-03-25T19:33:37.443Z,99732.59
2023-03-25T19:36:05.839Z,99734.44
2023-03-25T19:38:35.201Z,99736.00
2023-03-25T19:41:05.333Z,99749.69
2023-03-25T19:43:33.103Z,99739.97
2023-03-25T19:46:01.344Z,99748.00
2023-03-25T19:48:30.181Z,99757.03
2023-03-25T19:50:58.547Z,99749.56
2023-03-25T19:53:27.426Z,99741.94
2023-03-25T19:55:57.041Z,99748.03
2023-03-25T19:58:25.101Z,99748.09
2023-03-25T20:00:53.186Z,99762.00
2023-03-25T20:03:22.714Z,99756.00
2023-03-25T20:05:50.860Z,99750.53
2023-03-25T20:08:18.731Z,99736.88
2023-03-25T20:10:46.486Z,99756.53
2023-03-25T20:13:15.609Z,99756.94
2023-03-25T20:15:43.359Z,99753.94
2023-03-25T20:18:11.220Z,99739.94
2023-03-25T20:20:40.611Z,99742.19
2023-03-25T20:23:08.362Z,99746.81
2023-03-25T20:25:36.494Z,99748.28
2023-03-25T20:28:04.231Z,99744.16
2023-03-25T20:30:35.274Z,99756.59
2023-03-25T20:33:03.192Z,99758.69
2023-03-25T20:35:31.994Z,99746.44
2023-03-25T20:37:59.859Z,99748.34
2023-03-25T20:40:37.285Z,99761.97
2023-03-25T20:43:13.701Z,99753.00
2023-03-25T20:45:43.428Z,99759.22
2023-03-25T20:48:11.382Z,99755.81
2023-03-25T20:50:39.095Z,99762.91
2023-03-25T20:53:06.785Z,99746.22
2023-03-25T20:55:34.416Z,99757.47
2023-03-25T20:58:02.204Z,99758.31
2023-03-25T21:00:30.099Z,99764.13
2023-03-25T21:02:59.252Z,99757.22
2023-03-25T21:05:27.960Z,99780.53
2023-03-25T21:07:55.687Z,99776.72
2023-03-25T21:10:23.542Z,99785.34
2023-03-25T21:12:51.417Z,99777.47
2023-03-25T21:15:19.224Z,99780.50
2023-03-25T21:17:47.108Z,99775.59
2023-03-25T21:20:16.283Z,99783.47
2023-03-25T21:22:44.717Z,99785.00
2023-03-25T21:25:14.216Z,99787.25
2023-03-25T21:27:42.300Z,99791.09
2023-03-25T21:30:11.155Z,99783.78
2023-03-25T21:32:39.060Z,99794.53
2023-03-25T21:35:07.879Z,99795.31
2023-03-25T21:37:39.287Z,99800.94
2023-03-25T21:40:10.419Z,99802.03
2023-03-25T21:42:39.184Z,99806.19
2023-03-25T21:45:08.696Z,99824.56
2023-03-25T21:47:36.713Z,99814.44
2023-03-25T21:50:07.315Z,99820.25
2023-03-25T21:52:35.006Z,99823.91
2023-03-25T21:55:04.084Z,99817.31
2023-03-25T21:57:37.717Z,99821.44
2023-03-25T22:00:08.607Z,99827.94
2023-03-25T22:02:36.607Z,99835.75
2023-03-25T22:05:04.407Z,99835.78
2023-03-25T22:07:32.113Z,99831.50
2023-03-25T22:09:59.820Z,99849.88
2023-03-25T22:12:29.941Z,99848.88
2023-03-25T22:14:57.768Z,99847.50
2023-03-25T22:17:25.555Z,99848.72
2023-03-25T22:19:53.459Z,99853.63
2023-03-25T22:22:21.600Z,99845.75
2023-03-25T22:24:50.273Z,99850.75
2023-03-25T22:27:17.948Z,99857.97
2023-03-25T22:29:46.970Z,99859.00
2023-03-25T22:32:14.720Z,99872.75
2023-03-25T22:34:42.438Z,99869.84
2023-03-25T22:37:10.256Z,99872.16
2023-03-25T22:39:38.919Z,99875.75
2023-03-25T22:42:06.721Z,99878.28
2023-03-25T22:44:34.401Z,99871.00
2023-03-25T22:47:03.843Z,99884.13
2023-03-25T22:49:31.661Z,99884.66
2023-03-25T22:51:59.409Z,99890.56
2023-03-25T22:54:27.255Z,99897.56
2023-03-25T22:56:55.023Z,99898.06
2023-03-25T22:59:22.899Z,99891.97
2023-03-25T23:01:50.629Z,99896.50
2023-03-25T23:04:19.761Z,99891.44
2023-03-25T23:07:00.613Z,99897.44
2023-03-25T23:09:45.480Z,99897.56
2023-03-25T23:12:14.655Z,99901.25
2023-03-25T23:14:44.476Z,99893.19
2023-03-25T23:17:12.611Z,99885.09
2023-03-25T23:19:41.715Z,99893.34
2023-03-25T23:22:09.483Z,99903.28
2023-03-25T23:24:38.985Z,99908.53
2023-03-25T23:27:08.261Z,99916.28
2023-03-25T23:29:37.269Z,99909.13
2023-03-25T23:32:05.936Z,99917.00
2023-03-25T23:34:34.396Z,99906.34
2023-03-25T23:37:03.781Z,99922.44
2023-03-25T23:39:31.780Z,99910.84
2023-03-25T23:41:59.579Z,99916.94
2023-03-25T23:44:27.344Z,99915.69
2023-03-25T23:46:55.093Z,99919.06
2023-03-25T23:49:22.884Z,99915.50
2023-03-25T23:51:51.111Z,99917.56
2023-03-25T23:54:20.234Z,99914.97
2023-03-25T23:56:47.928Z,99928.19
2023-03-25T23:59:15.689Z,99928.50
